sensor_id;sensor_type;location;lat;lon;timestamp;P1;durP1;ratioP1;P2;durP2;ratioP2
20945;SDS011;10632;51.276;7.116;2022-07-09T00:02:08;4.60;;;2.30;;
20945;SDS011;10632;51.276;7.116;2022-07-09T00:04:35;4.53;;;2.10;;
20945;SDS011;10632;51.276;7.116;2022-07-09T00:07:02;4.75;;;2.20;;
20945;SDS011;10632;51.276;7.116;2022-07-09T00:09:30;4.00;;;1.88;;
20945;SDS011;10632;51.276;7.116;2022-07-09T00:11:57;3.25;;;1.73;;
20945;SDS011;10632;51.276;7.116;2022-07-09T00:14:25;4.85;;;2.20;;
20945;SDS011;10632;51.276;7.116;2022-07-09T00:16:52;5.25;;;2.15;;
20945;SDS011;10632;51.276;7.116;2022-07-09T00:19:20;4.07;;;2.00;;
20945;SDS011;10632;51.276;7.116;2022-07-09T00:21:47;5.15;;;2.35;;
20945;SDS011;10632;51.276;7.116;2022-07-09T00:24:14;4.82;;;2.08;;
20945;SDS011;10632;51.276;7.116;2022-07-09T00:26:41;4.30;;;2.13;;
20945;SDS011;10632;51.276;7.116;2022-07-09T00:29:08;7.45;;;2.25;;
20945;SDS011;10632;51.276;7.116;2022-07-09T00:31:36;4.43;;;2.22;;
20945;SDS011;10632;51.276;7.116;2022-07-09T00:34:03;7.72;;;2.60;;
20945;SDS011;10632;51.276;7.116;2022-07-09T00:36:30;5.25;;;2.30;;
20945;SDS011;10632;51.276;7.116;2022-07-09T00:38:57;6.40;;;2.38;;
20945;SDS011;10632;51.276;7.116;2022-07-09T00:41:24;4.43;;;2.47;;
20945;SDS011;10632;51.276;7.116;2022-07-09T00:43:51;4.22;;;2.30;;
20945;SDS011;10632;51.276;7.116;2022-07-09T00:46:18;7.80;;;2.50;;
20945;SDS011;10632;51.276;7.116;2022-07-09T00:48:46;10.65;;;2.90;;
20945;SDS011;10632;51.276;7.116;2022-07-09T00:51:13;5.00;;;2.60;;
20945;SDS011;10632;51.276;7.116;2022-07-09T00:53:40;6.13;;;2.72;;
20945;SDS011;10632;51.276;7.116;2022-07-09T00:56:08;5.75;;;2.75;;
20945;SDS011;10632;51.276;7.116;2022-07-09T00:58:35;5.82;;;2.67;;
20945;SDS011;10632;51.276;7.116;2022-07-09T01:01:03;6.60;;;2.50;;
20945;SDS011;10632;51.276;7.116;2022-07-09T01:03:30;5.80;;;2.60;;
20945;SDS011;10632;51.276;7.116;2022-07-09T01:05:58;4.80;;;2.63;;
20945;SDS011;10632;51.276;7.116;2022-07-09T01:08:27;5.45;;;2.47;;
20945;SDS011;10632;51.276;7.116;2022-07-09T01:10:57;4.88;;;2.78;;
20945;SDS011;10632;51.276;7.116;2022-07-09T01:13:26;4.85;;;2.60;;
20945;SDS011;10632;51.276;7.116;2022-07-09T01:15:58;4.50;;;2.15;;
20945;SDS011;10632;51.276;7.116;2022-07-09T01:18:27;5.65;;;2.53;;
20945;SDS011;10632;51.276;7.116;2022-07-09T01:21:10;5.82;;;2.42;;
20945;SDS011;10632;51.276;7.116;2022-07-09T01:23:46;6.07;;;2.83;;
20945;SDS011;10632;51.276;7.116;2022-07-09T01:26:25;7.88;;;3.00;;
20945;SDS011;10632;51.276;7.116;2022-07-09T01:28:58;7.28;;;2.80;;
20945;SDS011;10632;51.276;7.116;2022-07-09T01:31:30;5.50;;;2.70;;
20945;SDS011;10632;51.276;7.116;2022-07-09T01:34:03;5.13;;;2.55;;
20945;SDS011;10632;51.276;7.116;2022-07-09T01:36:32;5.13;;;2.63;;
20945;SDS011;10632;51.276;7.116;2022-07-09T01:39:04;4.85;;;2.55;;
20945;SDS011;10632;51.276;7.116;2022-07-09T01:41:41;5.65;;;2.92;;
20945;SDS011;10632;51.276;7.116;2022-07-09T01:44:15;7.60;;;2.85;;
20945;SDS011;10632;51.276;7.116;2022-07-09T01:46:56;5.75;;;2.78;;
20945;SDS011;10632;51.276;7.116;2022-07-09T01:49:41;4.38;;;2.42;;
20945;SDS011;10632;51.276;7.116;2022-07-09T01:52:12;7.47;;;3.20;;
20945;SDS011;10632;51.276;7.116;2022-07-09T01:54:50;7.53;;;3.05;;
20945;SDS011;10632;51.276;7.116;2022-07-09T01:57:26;6.43;;;3.05;;
20945;SDS011;10632;51.276;7.116;2022-07-09T01:59:56;7.88;;;3.20;;
20945;SDS011;10632;51.276;7.116;2022-07-09T02:02:26;6.38;;;3.08;;
20945;SDS011;10632;51.276;7.116;2022-07-09T02:04:53;6.80;;;3.00;;
20945;SDS011;10632;51.276;7.116;2022-07-09T02:07:21;8.45;;;2.88;;
20945;SDS011;10632;51.276;7.116;2022-07-09T02:09:48;8.70;;;3.15;;
20945;SDS011;10632;51.276;7.116;2022-07-09T02:12:16;9.35;;;3.13;;
20945;SDS011;10632;51.276;7.116;2022-07-09T02:14:44;7.28;;;3.03;;
20945;SDS011;10632;51.276;7.116;2022-07-09T02:17:11;7.28;;;3.60;;
20945;SDS011;10632;51.276;7.116;2022-07-09T02:19:38;7.95;;;3.22;;
20945;SDS011;10632;51.276;7.116;2022-07-09T02:22:05;5.80;;;3.10;;
20945;SDS011;10632;51.276;7.116;2022-07-09T02:24:33;6.32;;;3.45;;
20945;SDS011;10632;51.276;7.116;2022-07-09T02:27:00;9.15;;;3.85;;
20945;SDS011;10632;51.276;7.116;2022-07-09T02:29:27;7.82;;;3.75;;
20945;SDS011;10632;51.276;7.116;2022-07-09T02:31:54;8.43;;;3.80;;
20945;SDS011;10632;51.276;7.116;2022-07-09T02:34:22;7.07;;;3.85;;
20945;SDS011;10632;51.276;7.116;2022-07-09T02:36:49;7.88;;;3.75;;
20945;SDS011;10632;51.276;7.116;2022-07-09T02:39:16;11.98;;;4.28;;
20945;SDS011;10632;51.276;7.116;2022-07-09T02:41:44;7.97;;;4.15;;
20945;SDS011;10632;51.276;7.116;2022-07-09T02:44:13;8.35;;;4.00;;
20945;SDS011;10632;51.276;7.116;2022-07-09T02:46:40;11.82;;;4.57;;
20945;SDS011;10632;51.276;7.116;2022-07-09T02:49:07;9.15;;;3.85;;
20945;SDS011;10632;51.276;7.116;2022-07-09T02:51:35;9.52;;;4.53;;
20945;SDS011;10632;51.276;7.116;2022-07-09T02:54:02;9.02;;;4.35;;
20945;SDS011;10632;51.276;7.116;2022-07-09T02:56:29;9.15;;;4.50;;
20945;SDS011;10632;51.276;7.116;2022-07-09T02:58:58;12.80;;;4.88;;
20945;SDS011;10632;51.276;7.116;2022-07-09T03:01:25;11.80;;;5.20;;
20945;SDS011;10632;51.276;7.116;2022-07-09T03:03:52;10.80;;;4.13;;
20945;SDS011;10632;51.276;7.116;2022-07-09T03:06:19;8.13;;;3.83;;
20945;SDS011;10632;51.276;7.116;2022-07-09T03:08:47;10.77;;;4.28;;
20945;SDS011;10632;51.276;7.116;2022-07-09T03:11:14;9.93;;;4.38;;
20945;SDS011;10632;51.276;7.116;2022-07-09T03:13:41;12.63;;;4.75;;
20945;SDS011;10632;51.276;7.116;2022-07-09T03:16:09;10.25;;;4.45;;
20945;SDS011;10632;51.276;7.116;2022-07-09T03:18:36;10.20;;;4.60;;
20945;SDS011;10632;51.276;7.116;2022-07-09T03:21:04;9.10;;;4.32;;
20945;SDS011;10632;51.276;7.116;2022-07-09T03:23:33;11.10;;;3.95;;
20945;SDS011;10632;51.276;7.116;2022-07-09T03:26:00;12.48;;;4.50;;
20945;SDS011;10632;51.276;7.116;2022-07-09T03:28:27;10.65;;;4.97;;
20945;SDS011;10632;51.276;7.116;2022-07-09T03:30:54;14.93;;;5.03;;
20945;SDS011;10632;51.276;7.116;2022-07-09T03:33:22;7.88;;;3.92;;
20945;SDS011;10632;51.276;7.116;2022-07-09T03:35:49;10.80;;;4.35;;
20945;SDS011;10632;51.276;7.116;2022-07-09T03:38:16;9.82;;;4.45;;
20945;SDS011;10632;51.276;7.116;2022-07-09T03:40:43;10.63;;;4.88;;
20945;SDS011;10632;51.276;7.116;2022-07-09T03:43:10;8.73;;;3.95;;
20945;SDS011;10632;51.276;7.116;2022-07-09T03:45:37;9.75;;;4.25;;
20945;SDS011;10632;51.276;7.116;2022-07-09T03:48:04;8.88;;;4.25;;
20945;SDS011;10632;51.276;7.116;2022-07-09T03:50:33;7.07;;;3.80;;
20945;SDS011;10632;51.276;7.116;2022-07-09T03:53:00;9.93;;;4.78;;
20945;SDS011;10632;51.276;7.116;2022-07-09T03:55:28;8.48;;;4.25;;
20945;SDS011;10632;51.276;7.116;2022-07-09T03:57:55;8.27;;;4.30;;
20945;SDS011;10632;51.276;7.116;2022-07-09T04:00:22;12.38;;;3.95;;
20945;SDS011;10632;51.276;7.116;2022-07-09T04:02:51;8.45;;;3.97;;
20945;SDS011;10632;51.276;7.116;2022-07-09T04:05:18;7.93;;;3.38;;
20945;SDS011;10632;51.276;7.116;2022-07-09T04:07:47;9.50;;;4.80;;
20945;SDS011;10632;51.276;7.116;2022-07-09T04:10:14;10.63;;;4.97;;
20945;SDS011;10632;51.276;7.116;2022-07-09T04:12:41;12.55;;;4.68;;
20945;SDS011;10632;51.276;7.116;2022-07-09T04:15:08;12.00;;;4.75;;
20945;SDS011;10632;51.276;7.116;2022-07-09T04:17:36;12.98;;;5.20;;
20945;SDS011;10632;51.276;7.116;2022-07-09T04:20:03;10.57;;;4.70;;
20945;SDS011;10632;51.276;7.116;2022-07-09T04:22:31;11.50;;;5.22;;
20945;SDS011;10632;51.276;7.116;2022-07-09T04:24:59;13.10;;;5.30;;
20945;SDS011;10632;51.276;7.116;2022-07-09T04:27:26;10.52;;;4.43;;
20945;SDS011;10632;51.276;7.116;2022-07-09T04:29:53;9.63;;;3.97;;
20945;SDS011;10632;51.276;7.116;2022-07-09T04:32:20;13.65;;;4.72;;
20945;SDS011;10632;51.276;7.116;2022-07-09T04:34:47;10.18;;;4.20;;
20945;SDS011;10632;51.276;7.116;2022-07-09T04:37:14;7.18;;;3.67;;
20945;SDS011;10632;51.276;7.116;2022-07-09T04:39:41;9.73;;;4.20;;
20945;SDS011;10632;51.276;7.116;2022-07-09T04:42:10;9.70;;;3.75;;
20945;SDS011;10632;51.276;7.116;2022-07-09T04:44:37;11.52;;;4.03;;
20945;SDS011;10632;51.276;7.116;2022-07-09T04:47:04;8.38;;;3.70;;
20945;SDS011;10632;51.276;7.116;2022-07-09T04:49:32;8.57;;;4.13;;
20945;SDS011;10632;51.276;7.116;2022-07-09T04:51:58;7.18;;;4.00;;
20945;SDS011;10632;51.276;7.116;2022-07-09T04:54:26;12.30;;;4.35;;
20945;SDS011;10632;51.276;7.116;2022-07-09T04:56:53;9.05;;;4.35;;
20945;SDS011;10632;51.276;7.116;2022-07-09T04:59:21;8.50;;;3.97;;
20945;SDS011;10632;51.276;7.116;2022-07-09T05:01:48;11.85;;;4.30;;
20945;SDS011;10632;51.276;7.116;2022-07-09T05:04:16;9.68;;;4.18;;
20945;SDS011;10632;51.276;7.116;2022-07-09T05:06:43;9.00;;;4.53;;
20945;SDS011;10632;51.276;7.116;2022-07-09T05:09:10;11.23;;;4.70;;
20945;SDS011;10632;51.276;7.116;2022-07-09T05:11:37;11.60;;;4.43;;
20945;SDS011;10632;51.276;7.116;2022-07-09T05:14:04;11.23;;;3.92;;
20945;SDS011;10632;51.276;7.116;2022-07-09T05:16:33;9.00;;;4.28;;
20945;SDS011;10632;51.276;7.116;2022-07-09T05:19:00;10.23;;;5.03;;
20945;SDS011;10632;51.276;7.116;2022-07-09T05:21:27;8.75;;;4.07;;
20945;SDS011;10632;51.276;7.116;2022-07-09T05:23:54;8.52;;;4.07;;
20945;SDS011;10632;51.276;7.116;2022-07-09T05:26:21;8.65;;;4.15;;
20945;SDS011;10632;51.276;7.116;2022-07-09T05:28:48;10.20;;;4.35;;
20945;SDS011;10632;51.276;7.116;2022-07-09T05:31:15;10.50;;;3.80;;
20945;SDS011;10632;51.276;7.116;2022-07-09T05:33:43;10.80;;;4.18;;
20945;SDS011;10632;51.276;7.116;2022-07-09T05:36:10;8.73;;;3.97;;
20945;SDS011;10632;51.276;7.116;2022-07-09T05:38:37;10.85;;;4.25;;
20945;SDS011;10632;51.276;7.116;2022-07-09T05:41:04;14.75;;;5.20;;
20945;SDS011;10632;51.276;7.116;2022-07-09T05:43:32;17.45;;;6.75;;
20945;SDS011;10632;51.276;7.116;2022-07-09T05:45:59;14.38;;;6.28;;
20945;SDS011;10632;51.276;7.116;2022-07-09T05:48:26;16.38;;;6.13;;
20945;SDS011;10632;51.276;7.116;2022-07-09T05:50:55;14.63;;;6.15;;
20945;SDS011;10632;51.276;7.116;2022-07-09T05:53:22;14.57;;;5.95;;
20945;SDS011;10632;51.276;7.116;2022-07-09T05:55:49;15.27;;;6.10;;
20945;SDS011;10632;51.276;7.116;2022-07-09T05:58:16;11.80;;;5.10;;
20945;SDS011;10632;51.276;7.116;2022-07-09T06:00:42;10.57;;;5.00;;
20945;SDS011;10632;51.276;7.116;2022-07-09T06:03:09;10.05;;;4.65;;
20945;SDS011;10632;51.276;7.116;2022-07-09T06:05:36;10.57;;;4.00;;
20945;SDS011;10632;51.276;7.116;2022-07-09T06:08:05;10.20;;;4.32;;
20945;SDS011;10632;51.276;7.116;2022-07-09T06:10:35;10.30;;;4.25;;
20945;SDS011;10632;51.276;7.116;2022-07-09T06:13:02;9.65;;;4.40;;
20945;SDS011;10632;51.276;7.116;2022-07-09T06:15:29;12.25;;;4.40;;
20945;SDS011;10632;51.276;7.116;2022-07-09T06:17:56;10.13;;;4.60;;
20945;SDS011;10632;51.276;7.116;2022-07-09T06:20:23;7.75;;;3.58;;
20945;SDS011;10632;51.276;7.116;2022-07-09T06:22:50;11.10;;;4.55;;
20945;SDS011;10632;51.276;7.116;2022-07-09T06:25:19;8.63;;;4.18;;
20945;SDS011;10632;51.276;7.116;2022-07-09T06:27:45;10.35;;;4.50;;
20945;SDS011;10632;51.276;7.116;2022-07-09T06:30:12;15.65;;;4.78;;
20945;SDS011;10632;51.276;7.116;2022-07-09T06:32:39;15.70;;;5.32;;
20945;SDS011;10632;51.276;7.116;2022-07-09T06:35:06;15.18;;;5.75;;
20945;SDS011;10632;51.276;7.116;2022-07-09T06:37:34;16.90;;;6.10;;
20945;SDS011;10632;51.276;7.116;2022-07-09T06:40:01;13.55;;;6.10;;
20945;SDS011;10632;51.276;7.116;2022-07-09T06:42:29;16.15;;;5.80;;
20945;SDS011;10632;51.276;7.116;2022-07-09T06:44:56;14.52;;;5.20;;
20945;SDS011;10632;51.276;7.116;2022-07-09T06:47:23;14.13;;;4.90;;
20945;SDS011;10632;51.276;7.116;2022-07-09T06:49:50;13.43;;;5.03;;
20945;SDS011;10632;51.276;7.116;2022-07-09T06:52:17;12.02;;;4.20;;
20945;SDS011;10632;51.276;7.116;2022-07-09T06:54:43;10.35;;;4.38;;
20945;SDS011;10632;51.276;7.116;2022-07-09T06:57:10;11.30;;;4.07;;
20945;SDS011;10632;51.276;7.116;2022-07-09T06:59:40;12.45;;;3.80;;
20945;SDS011;10632;51.276;7.116;2022-07-09T07:02:07;11.10;;;4.28;;
20945;SDS011;10632;51.276;7.116;2022-07-09T07:04:34;11.70;;;4.40;;
20945;SDS011;10632;51.276;7.116;2022-07-09T07:07:01;16.17;;;4.10;;
20945;SDS011;10632;51.276;7.116;2022-07-09T07:09:29;15.80;;;4.05;;
20945;SDS011;10632;51.276;7.116;2022-07-09T07:11:56;13.82;;;4.20;;
20945;SDS011;10632;51.276;7.116;2022-07-09T07:14:23;8.95;;;3.17;;
20945;SDS011;10632;51.276;7.116;2022-07-09T07:16:51;7.97;;;3.22;;
20945;SDS011;10632;51.276;7.116;2022-07-09T07:19:19;8.73;;;3.15;;
20945;SDS011;10632;51.276;7.116;2022-07-09T07:21:47;9.73;;;3.38;;
20945;SDS011;10632;51.276;7.116;2022-07-09T07:24:14;8.18;;;3.00;;
20945;SDS011;10632;51.276;7.116;2022-07-09T07:26:41;10.80;;;3.00;;
20945;SDS011;10632;51.276;7.116;2022-07-09T07:29:08;7.28;;;2.88;;
20945;SDS011;10632;51.276;7.116;2022-07-09T07:31:35;8.15;;;2.90;;
20945;SDS011;10632;51.276;7.116;2022-07-09T07:34:03;7.07;;;2.78;;
20945;SDS011;10632;51.276;7.116;2022-07-09T07:36:30;9.23;;;2.70;;
20945;SDS011;10632;51.276;7.116;2022-07-09T07:38:57;6.32;;;2.15;;
20945;SDS011;10632;51.276;7.116;2022-07-09T07:41:24;6.22;;;2.50;;
20945;SDS011;10632;51.276;7.116;2022-07-09T07:43:51;8.60;;;2.97;;
20945;SDS011;10632;51.276;7.116;2022-07-09T07:46:18;6.97;;;2.50;;
20945;SDS011;10632;51.276;7.116;2022-07-09T07:48:44;8.07;;;2.58;;
20945;SDS011;10632;51.276;7.116;2022-07-09T07:51:15;8.48;;;2.40;;
20945;SDS011;10632;51.276;7.116;2022-07-09T07:53:42;7.95;;;2.65;;
20945;SDS011;10632;51.276;7.116;2022-07-09T07:56:09;10.02;;;2.92;;
20945;SDS011;10632;51.276;7.116;2022-07-09T07:58:36;8.07;;;2.85;;
20945;SDS011;10632;51.276;7.116;2022-07-09T08:01:03;8.23;;;2.75;;
20945;SDS011;10632;51.276;7.116;2022-07-09T08:03:30;6.88;;;2.58;;
20945;SDS011;10632;51.276;7.116;2022-07-09T08:05:57;6.30;;;2.33;;
20945;SDS011;10632;51.276;7.116;2022-07-09T08:08:26;7.32;;;2.35;;
20945;SDS011;10632;51.276;7.116;2022-07-09T08:10:53;9.00;;;2.35;;
20945;SDS011;10632;51.276;7.116;2022-07-09T08:13:20;7.03;;;2.10;;
20945;SDS011;10632;51.276;7.116;2022-07-09T08:15:47;6.13;;;1.85;;
20945;SDS011;10632;51.276;7.116;2022-07-09T08:18:16;8.88;;;1.85;;
20945;SDS011;10632;51.276;7.116;2022-07-09T08:20:43;5.15;;;1.70;;
20945;SDS011;10632;51.276;7.116;2022-07-09T08:23:10;5.18;;;1.67;;
20945;SDS011;10632;51.276;7.116;2022-07-09T08:25:38;6.88;;;1.80;;
20945;SDS011;10632;51.276;7.116;2022-07-09T08:28:07;12.85;;;1.63;;
20945;SDS011;10632;51.276;7.116;2022-07-09T08:30:34;3.90;;;1.40;;
20945;SDS011;10632;51.276;7.116;2022-07-09T08:33:02;2.92;;;1.48;;
20945;SDS011;10632;51.276;7.116;2022-07-09T08:35:29;4.53;;;1.60;;
20945;SDS011;10632;51.276;7.116;2022-07-09T08:37:56;5.15;;;1.90;;
20945;SDS011;10632;51.276;7.116;2022-07-09T08:40:23;5.35;;;1.50;;
20945;SDS011;10632;51.276;7.116;2022-07-09T08:42:54;9.32;;;2.78;;
20945;SDS011;10632;51.276;7.116;2022-07-09T08:45:21;7.93;;;2.20;;
20945;SDS011;10632;51.276;7.116;2022-07-09T08:47:49;7.68;;;1.92;;
20945;SDS011;10632;51.276;7.116;2022-07-09T08:50:17;6.82;;;2.25;;
20945;SDS011;10632;51.276;7.116;2022-07-09T08:52:45;9.52;;;2.25;;
20945;SDS011;10632;51.276;7.116;2022-07-09T08:55:12;7.10;;;2.38;;
20945;SDS011;10632;51.276;7.116;2022-07-09T08:57:40;5.45;;;2.10;;
20945;SDS011;10632;51.276;7.116;2022-07-09T09:00:08;6.43;;;2.40;;
20945;SDS011;10632;51.276;7.116;2022-07-09T09:02:36;8.40;;;2.67;;
20945;SDS011;10632;51.276;7.116;2022-07-09T09:05:07;12.00;;;2.90;;
20945;SDS011;10632;51.276;7.116;2022-07-09T09:07:35;6.07;;;2.55;;
20945;SDS011;10632;51.276;7.116;2022-07-09T09:10:03;7.97;;;3.13;;
20945;SDS011;10632;51.276;7.116;2022-07-09T09:12:31;12.45;;;3.05;;
20945;SDS011;10632;51.276;7.116;2022-07-09T09:15:03;7.57;;;2.20;;
20945;SDS011;10632;51.276;7.116;2022-07-09T09:17:32;9.05;;;2.35;;
20945;SDS011;10632;51.276;7.116;2022-07-09T09:20:10;11.27;;;2.53;;
20945;SDS011;10632;51.276;7.116;2022-07-09T09:22:43;7.60;;;2.20;;
20945;SDS011;10632;51.276;7.116;2022-07-09T09:25:15;5.60;;;2.20;;
20945;SDS011;10632;51.276;7.116;2022-07-09T09:27:49;8.15;;;2.63;;
20945;SDS011;10632;51.276;7.116;2022-07-09T09:30:17;4.05;;;2.15;;
20945;SDS011;10632;51.276;7.116;2022-07-09T09:32:45;8.52;;;1.80;;
20945;SDS011;10632;51.276;7.116;2022-07-09T09:35:20;4.60;;;1.63;;
20945;SDS011;10632;51.276;7.116;2022-07-09T09:37:47;5.03;;;1.38;;
20945;SDS011;10632;51.276;7.116;2022-07-09T09:40:16;3.28;;;1.40;;
20945;SDS011;10632;51.276;7.116;2022-07-09T09:42:43;3.42;;;1.13;;
20945;SDS011;10632;51.276;7.116;2022-07-09T09:45:13;5.32;;;1.17;;
20945;SDS011;10632;51.276;7.116;2022-07-09T09:47:41;4.28;;;1.30;;
20945;SDS011;10632;51.276;7.116;2022-07-09T09:50:15;2.65;;;1.20;;
20945;SDS011;10632;51.276;7.116;2022-07-09T09:52:44;1.92;;;0.95;;
20945;SDS011;10632;51.276;7.116;2022-07-09T09:55:12;2.63;;;1.17;;
20945;SDS011;10632;51.276;7.116;2022-07-09T09:57:40;3.95;;;1.20;;
20945;SDS011;10632;51.276;7.116;2022-07-09T10:00:07;3.10;;;1.10;;
20945;SDS011;10632;51.276;7.116;2022-07-09T10:02:35;2.35;;;1.20;;
20945;SDS011;10632;51.276;7.116;2022-07-09T10:05:03;2.85;;;1.30;;
20945;SDS011;10632;51.276;7.116;2022-07-09T10:07:31;5.00;;;1.55;;
20945;SDS011;10632;51.276;7.116;2022-07-09T10:09:58;4.22;;;1.40;;
20945;SDS011;10632;51.276;7.116;2022-07-09T10:12:26;3.92;;;1.10;;
20945;SDS011;10632;51.276;7.116;2022-07-09T10:14:54;2.78;;;1.10;;
20945;SDS011;10632;51.276;7.116;2022-07-09T10:17:23;3.70;;;1.23;;
20945;SDS011;10632;51.276;7.116;2022-07-09T10:19:51;5.30;;;1.50;;
20945;SDS011;10632;51.276;7.116;2022-07-09T10:22:21;5.05;;;1.17;;
20945;SDS011;10632;51.276;7.116;2022-07-09T10:24:50;3.30;;;1.20;;
20945;SDS011;10632;51.276;7.116;2022-07-09T10:27:18;2.35;;;1.00;;
20945;SDS011;10632;51.276;7.116;2022-07-09T10:29:52;2.05;;;1.00;;
20945;SDS011;10632;51.276;7.116;2022-07-09T10:32:24;3.63;;;1.13;;
20945;SDS011;10632;51.276;7.116;2022-07-09T10:34:56;2.53;;;0.98;;
20945;SDS011;10632;51.276;7.116;2022-07-09T10:37:35;2.78;;;1.20;;
20945;SDS011;10632;51.276;7.116;2022-07-09T10:40:08;2.88;;;1.00;;
20945;SDS011;10632;51.276;7.116;2022-07-09T10:42:36;9.38;;;1.13;;
20945;SDS011;10632;51.276;7.116;2022-07-09T10:45:14;2.13;;;0.90;;
20945;SDS011;10632;51.276;7.116;2022-07-09T10:47:54;1.77;;;0.90;;
20945;SDS011;10632;51.276;7.116;2022-07-09T10:50:22;1.45;;;0.80;;
20945;SDS011;10632;51.276;7.116;2022-07-09T10:52:51;2.35;;;0.77;;
20945;SDS011;10632;51.276;7.116;2022-07-09T10:55:19;3.08;;;0.90;;
20945;SDS011;10632;51.276;7.116;2022-07-09T10:57:47;2.00;;;1.10;;
20945;SDS011;10632;51.276;7.116;2022-07-09T11:00:15;1.83;;;0.90;;
20945;SDS011;10632;51.276;7.116;2022-07-09T11:02:52;1.38;;;0.77;;
20945;SDS011;10632;51.276;7.116;2022-07-09T11:05:20;3.17;;;0.80;;
20945;SDS011;10632;51.276;7.116;2022-07-09T11:07:55;2.83;;;1.02;;
20945;SDS011;10632;51.276;7.116;2022-07-09T11:10:23;2.08;;;0.90;;
20945;SDS011;10632;51.276;7.116;2022-07-09T11:12:52;2.92;;;0.82;;
20945;SDS011;10632;51.276;7.116;2022-07-09T11:15:19;1.45;;;0.90;;
20945;SDS011;10632;51.276;7.116;2022-07-09T11:17:59;1.63;;;0.90;;
20945;SDS011;10632;51.276;7.116;2022-07-09T11:20:28;2.28;;;0.90;;
20945;SDS011;10632;51.276;7.116;2022-07-09T11:22:57;2.08;;;0.90;;
20945;SDS011;10632;51.276;7.116;2022-07-09T11:25:26;1.35;;;0.70;;
20945;SDS011;10632;51.276;7.116;2022-07-09T11:27:54;3.35;;;0.80;;
20945;SDS011;10632;51.276;7.116;2022-07-09T11:30:22;1.75;;;0.85;;
20945;SDS011;10632;51.276;7.116;2022-07-09T11:32:49;1.95;;;0.98;;
20945;SDS011;10632;51.276;7.116;2022-07-09T11:35:26;1.40;;;0.80;;
20945;SDS011;10632;51.276;7.116;2022-07-09T11:37:54;1.90;;;0.77;;
20945;SDS011;10632;51.276;7.116;2022-07-09T11:40:23;1.10;;;0.80;;
20945;SDS011;10632;51.276;7.116;2022-07-09T11:42:50;3.50;;;0.85;;
20945;SDS011;10632;51.276;7.116;2022-07-09T11:45:21;2.88;;;0.80;;
20945;SDS011;10632;51.276;7.116;2022-07-09T11:47:49;1.70;;;0.90;;
20945;SDS011;10632;51.276;7.116;2022-07-09T11:50:27;1.48;;;1.00;;
20945;SDS011;10632;51.276;7.116;2022-07-09T11:52:54;3.65;;;1.00;;
20945;SDS011;10632;51.276;7.116;2022-07-09T11:55:27;3.67;;;1.10;;
20945;SDS011;10632;51.276;7.116;2022-07-09T11:57:56;3.28;;;1.10;;
20945;SDS011;10632;51.276;7.116;2022-07-09T12:00:24;1.98;;;1.05;;
20945;SDS011;10632;51.276;7.116;2022-07-09T12:02:53;2.10;;;1.20;;
20945;SDS011;10632;51.276;7.116;2022-07-09T12:05:24;1.98;;;1.13;;
20945;SDS011;10632;51.276;7.116;2022-07-09T12:07:54;2.88;;;1.30;;
20945;SDS011;10632;51.276;7.116;2022-07-09T12:10:27;1.80;;;1.00;;
20945;SDS011;10632;51.276;7.116;2022-07-09T12:12:55;3.42;;;1.42;;
20945;SDS011;10632;51.276;7.116;2022-07-09T12:15:22;4.22;;;1.30;;
20945;SDS011;10632;51.276;7.116;2022-07-09T12:17:53;2.33;;;1.17;;
20945;SDS011;10632;51.276;7.116;2022-07-09T12:20:21;4.00;;;1.35;;
20945;SDS011;10632;51.276;7.116;2022-07-09T12:22:49;2.55;;;1.45;;
20945;SDS011;10632;51.276;7.116;2022-07-09T12:25:18;5.32;;;1.20;;
20945;SDS011;10632;51.276;7.116;2022-07-09T12:27:46;3.75;;;1.42;;
20945;SDS011;10632;51.276;7.116;2022-07-09T12:30:14;3.42;;;1.65;;
20945;SDS011;10632;51.276;7.116;2022-07-09T12:32:42;2.97;;;1.60;;
20945;SDS011;10632;51.276;7.116;2022-07-09T12:35:10;3.88;;;1.75;;
20945;SDS011;10632;51.276;7.116;2022-07-09T12:37:38;4.88;;;2.20;;
20945;SDS011;10632;51.276;7.116;2022-07-09T12:40:06;2.88;;;1.60;;
20945;SDS011;10632;51.276;7.116;2022-07-09T12:42:36;2.83;;;1.80;;
20945;SDS011;10632;51.276;7.116;2022-07-09T12:45:04;4.65;;;1.90;;
20945;SDS011;10632;51.276;7.116;2022-07-09T12:47:31;4.50;;;2.00;;
20945;SDS011;10632;51.276;7.116;2022-07-09T12:49:59;4.97;;;1.95;;
20945;SDS011;10632;51.276;7.116;2022-07-09T12:52:28;6.88;;;2.20;;
20945;SDS011;10632;51.276;7.116;2022-07-09T12:54:57;5.90;;;2.20;;
20945;SDS011;10632;51.276;7.116;2022-07-09T12:57:24;4.63;;;2.45;;
20945;SDS011;10632;51.276;7.116;2022-07-09T12:59:53;5.63;;;3.13;;
20945;SDS011;10632;51.276;7.116;2022-07-09T13:02:20;8.63;;;2.80;;
20945;SDS011;10632;51.276;7.116;2022-07-09T13:04:47;6.55;;;2.90;;
20945;SDS011;10632;51.276;7.116;2022-07-09T13:07:14;6.00;;;3.10;;
20945;SDS011;10632;51.276;7.116;2022-07-09T13:09:41;6.15;;;3.28;;
20945;SDS011;10632;51.276;7.116;2022-07-09T13:12:08;6.47;;;3.45;;
20945;SDS011;10632;51.276;7.116;2022-07-09T13:14:35;4.60;;;2.60;;
20945;SDS011;10632;51.276;7.116;2022-07-09T13:17:03;8.95;;;4.15;;
20945;SDS011;10632;51.276;7.116;2022-07-09T13:19:30;10.55;;;5.57;;
20945;SDS011;10632;51.276;7.116;2022-07-09T13:21:57;22.17;;;6.88;;
20945;SDS011;10632;51.276;7.116;2022-07-09T13:24:24;13.38;;;6.75;;
20945;SDS011;10632;51.276;7.116;2022-07-09T13:26:51;15.30;;;7.20;;
20945;SDS011;10632;51.276;7.116;2022-07-09T13:29:18;14.25;;;7.15;;
20945;SDS011;10632;51.276;7.116;2022-07-09T13:31:45;12.85;;;6.85;;
20945;SDS011;10632;51.276;7.116;2022-07-09T13:34:13;15.25;;;7.53;;
20945;SDS011;10632;51.276;7.116;2022-07-09T13:36:40;13.25;;;6.10;;
20945;SDS011;10632;51.276;7.116;2022-07-09T13:39:07;15.60;;;6.90;;
20945;SDS011;10632;51.276;7.116;2022-07-09T13:41:34;18.02;;;7.35;;
20945;SDS011;10632;51.276;7.116;2022-07-09T13:44:01;16.70;;;7.40;;
20945;SDS011;10632;51.276;7.116;2022-07-09T13:46:28;14.73;;;7.38;;
20945;SDS011;10632;51.276;7.116;2022-07-09T13:48:55;16.23;;;7.45;;
20945;SDS011;10632;51.276;7.116;2022-07-09T13:51:23;12.88;;;6.10;;
20945;SDS011;10632;51.276;7.116;2022-07-09T13:53:51;12.88;;;5.93;;
20945;SDS011;10632;51.276;7.116;2022-07-09T13:56:18;13.57;;;6.57;;
20945;SDS011;10632;51.276;7.116;2022-07-09T13:58:45;14.90;;;6.97;;
20945;SDS011;10632;51.276;7.116;2022-07-09T14:01:12;13.98;;;6.97;;
20945;SDS011;10632;51.276;7.116;2022-07-09T14:03:39;13.85;;;6.63;;
20945;SDS011;10632;51.276;7.116;2022-07-09T14:06:06;11.77;;;6.10;;
20945;SDS011;10632;51.276;7.116;2022-07-09T14:08:36;10.68;;;5.43;;
20945;SDS011;10632;51.276;7.116;2022-07-09T14:11:04;11.48;;;5.60;;
20945;SDS011;10632;51.276;7.116;2022-07-09T14:13:31;12.00;;;5.20;;
20945;SDS011;10632;51.276;7.116;2022-07-09T14:15:58;10.10;;;4.55;;
20945;SDS011;10632;51.276;7.116;2022-07-09T14:18:25;9.07;;;4.80;;
20945;SDS011;10632;51.276;7.116;2022-07-09T14:20:53;9.65;;;5.05;;
20945;SDS011;10632;51.276;7.116;2022-07-09T14:23:20;9.50;;;4.43;;
20945;SDS011;10632;51.276;7.116;2022-07-09T14:25:48;10.93;;;3.70;;
20945;SDS011;10632;51.276;7.116;2022-07-09T14:28:15;7.05;;;3.75;;
20945;SDS011;10632;51.276;7.116;2022-07-09T14:30:42;12.00;;;4.38;;
20945;SDS011;10632;51.276;7.116;2022-07-09T14:33:09;8.15;;;4.18;;
20945;SDS011;10632;51.276;7.116;2022-07-09T14:35:37;10.05;;;4.80;;
20945;SDS011;10632;51.276;7.116;2022-07-09T14:38:03;9.70;;;4.30;;
20945;SDS011;10632;51.276;7.116;2022-07-09T14:40:30;8.95;;;3.90;;
20945;SDS011;10632;51.276;7.116;2022-07-09T14:42:59;9.93;;;4.72;;
20945;SDS011;10632;51.276;7.116;2022-07-09T14:45:29;11.30;;;4.95;;
20945;SDS011;10632;51.276;7.116;2022-07-09T14:47:56;9.48;;;4.70;;
20945;SDS011;10632;51.276;7.116;2022-07-09T14:50:25;9.18;;;4.78;;